createdAt,value
2017-03-28T00:01:17.883Z,0
2017-03-28T00:02:17.808Z,0
2017-03-28T00:03:17.769Z,0
2017-03-28T00:04:17.691Z,0
2017-03-28T00:05:17.618Z,0
2017-03-28T00:06:17.566Z,0
2017-03-28T00:07:17.503Z,0
2017-03-28T00:08:17.430Z,0
2017-03-28T00:09:17.373Z,0
2017-03-28T00:10:17.314Z,0
2017-03-28T00:11:17.251Z,0
2017-03-28T00:12:16.899Z,0
2017-03-28T00:13:16.824Z,0
2017-03-28T00:14:16.763Z,0
2017-03-28T00:15:16.999Z,0
2017-03-28T00:16:16.634Z,0
2017-03-28T00:17:16.875Z,0
2017-03-28T00:18:16.819Z,0
2017-03-28T00:19:16.753Z,0
2017-03-28T00:20:16.691Z,0
2017-03-28T00:21:16.632Z,0
2017-03-28T00:22:16.270Z,0
2017-03-28T00:23:16.508Z,0
2017-03-28T00:24:16.449Z,0
2017-03-28T00:25:16.380Z,0
2017-03-28T00:26:16.316Z,0
2017-03-28T00:27:16.275Z,0
2017-03-28T00:28:16.194Z,0
2017-03-28T00:29:16.136Z,0
2017-03-28T00:30:16.075Z,0
2017-03-28T00:31:16.004Z,0
2017-03-28T00:32:15.942Z,0
2017-03-28T00:33:15.884Z,0
2017-03-28T00:34:15.526Z,0
2017-03-28T00:35:15.453Z,0
2017-03-28T00:36:15.696Z,0
2017-03-28T00:37:15.635Z,0
2017-03-28T00:38:15.585Z,0
2017-03-28T00:39:15.524Z,0
2017-03-28T00:40:15.444Z,0
2017-03-28T00:41:15.395Z,0
2017-03-28T00:42:15.323Z,0
2017-03-28T00:43:15.260Z,0
2017-03-28T00:44:15.200Z,0
2017-03-28T00:45:15.132Z,0
2017-03-28T00:46:15.075Z,0
2017-03-28T00:47:15.016Z,0
2017-03-28T00:48:14.651Z,0
2017-03-28T00:49:14.891Z,0
2017-03-28T00:50:14.821Z,0
2017-03-28T00:51:14.784Z,0
2017-03-28T00:52:14.716Z,0
2017-03-28T00:53:14.672Z,0
2017-03-28T00:54:14.597Z,0
2017-03-28T00:55:14.529Z,0
2017-03-28T00:56:14.495Z,0
2017-03-28T00:57:14.407Z,0
2017-03-28T00:58:14.049Z,0
2017-03-28T00:59:14.285Z,0
2017-03-28T01:00:14.221Z,0
2017-03-28T01:01:14.138Z,0
2017-03-28T01:02:14.080Z,0
2017-03-28T01:03:14.023Z,0
2017-03-28T01:04:13.953Z,0
2017-03-28T01:05:13.584Z,0
2017-03-28T01:06:13.839Z,0
2017-03-28T01:07:13.769Z,0
2017-03-28T01:08:13.714Z,0
2017-03-28T01:09:13.644Z,0
2017-03-28T01:10:13.587Z,0
2017-03-28T01:11:13.519Z,0
2017-03-28T01:12:13.157Z,0
2017-03-28T01:13:13.098Z,0
2017-03-28T01:14:13.028Z,0
2017-03-28T01:15:12.669Z,0
2017-03-28T01:16:13.213Z,0
2017-03-28T01:17:13.144Z,4
2017-03-28T01:18:13.090Z,4
2017-03-28T01:19:13.036Z,8
2017-03-28T01:20:12.963Z,4
2017-03-28T01:21:12.894Z,4
2017-03-28T01:22:12.834Z,4
2017-03-28T01:23:12.772Z,4
2017-03-28T01:24:12.416Z,4
2017-03-28T01:25:12.346Z,4
2017-03-28T01:26:12.594Z,4
2017-03-28T01:27:12.531Z,4
2017-03-28T01:28:12.459Z,4
2017-03-28T01:29:12.405Z,4
2017-03-28T01:30:11.745Z,4
2017-03-28T01:31:12.284Z,4
2017-03-28T01:32:12.217Z,4
2017-03-28T01:33:12.158Z,4
2017-03-28T01:34:12.089Z,4
2017-03-28T01:35:12.026Z,4
2017-03-28T01:36:11.661Z,4
2017-03-28T01:37:11.905Z,4
2017-03-28T01:38:11.535Z,4
2017-03-28T01:39:11.478Z,4
2017-03-28T01:40:11.719Z,4
2017-03-28T01:41:11.651Z,4
2017-03-28T01:42:11.595Z,4
2017-03-28T01:43:11.240Z,4
2017-03-28T01:44:11.467Z,4
2017-03-28T01:45:11.406Z,4
2017-03-28T01:46:11.344Z,4
2017-03-28T01:47:10.979Z,4
2017-03-28T01:48:11.217Z,4
2017-03-28T01:49:11.159Z,4
2017-03-28T01:50:11.094Z,4
2017-03-28T01:51:11.032Z,4
2017-03-28T01:52:10.965Z,4
2017-03-28T01:53:10.602Z,4
2017-03-28T01:54:10.848Z,4
2017-03-28T01:55:10.475Z,4
2017-03-28T01:56:10.718Z,4
2017-03-28T01:57:10.657Z,4
2017-03-28T01:58:10.601Z,4
2017-03-28T01:59:10.531Z,4
2017-03-28T02:00:10.171Z,4
2017-03-28T02:01:10.409Z,4
2017-03-28T02:02:10.380Z,4
2017-03-28T02:03:10.292Z,4
2017-03-28T02:04:10.237Z,4
2017-03-28T02:05:09.864Z,4
2017-03-28T02:06:10.106Z,4
2017-03-28T02:07:10.036Z,4
2017-03-28T02:08:09.977Z,4
2017-03-28T02:09:09.922Z,4
2017-03-28T02:10:09.547Z,4
2017-03-28T02:11:09.787Z,4
2017-03-28T02:12:09.733Z,4
2017-03-28T02:13:09.660Z,4
2017-03-28T02:14:09.603Z,4
2017-03-28T02:15:09.538Z,4
2017-03-28T02:16:09.172Z,4
2017-03-28T02:17:09.421Z,4
2017-03-28T02:18:09.053Z,4
2017-03-28T02:19:08.987Z,4
2017-03-28T02:20:09.230Z,4
2017-03-28T02:21:09.171Z,4
2017-03-28T02:22:09.116Z,4
2017-03-28T02:23:09.048Z,4
2017-03-28T02:24:08.687Z,4
2017-03-28T02:25:08.914Z,4
2017-03-28T02:26:08.852Z,4
2017-03-28T02:27:08.505Z,4
2017-03-28T02:28:08.738Z,4
2017-03-28T02:29:08.669Z,4
2017-03-28T02:30:08.303Z,4
2017-03-28T02:31:08.542Z,4
2017-03-28T02:32:08.493Z,4
2017-03-28T02:33:08.419Z,4
2017-03-28T02:34:08.065Z,4
2017-03-28T02:35:07.993Z,4
2017-03-28T02:36:08.236Z,4
2017-03-28T02:37:08.169Z,4
2017-03-28T02:38:07.812Z,4
2017-03-28T02:39:08.056Z,4
2017-03-28T02:40:08.151Z,4
2017-03-28T02:41:07.921Z,4
2017-03-28T02:42:07.863Z,4
2017-03-28T02:43:07.803Z,4
2017-03-28T02:44:07.740Z,4
2017-03-28T02:45:07.670Z,4
2017-03-28T02:46:07.616Z,4
2017-03-28T02:47:07.549Z,4
2017-03-28T02:48:07.491Z,4
2017-03-28T02:49:07.425Z,4
2017-03-28T02:50:07.358Z,4
2017-03-28T02:51:07.300Z,4
2017-03-28T02:52:07.241Z,4
2017-03-28T02:53:07.173Z,4
2017-03-28T02:54:07.124Z,4
2017-03-28T02:55:07.058Z,4
2017-03-28T02:56:06.988Z,4
2017-03-28T02:57:06.923Z,4
2017-03-28T02:58:06.868Z,4
2017-03-28T02:59:06.816Z,4
2017-03-28T03:00:06.746Z,4
2017-03-28T03:01:06.675Z,4
2017-03-28T03:02:06.619Z,4
2017-03-28T03:03:06.554Z,4
2017-03-28T03:04:06.491Z,4
2017-03-28T03:05:06.430Z,4
2017-03-28T03:06:06.377Z,4
2017-03-28T03:07:06.319Z,4
2017-03-28T03:08:06.254Z,4
2017-03-28T03:09:06.198Z,4
2017-03-28T03:10:05.822Z,4
2017-03-28T03:11:06.055Z,4
2017-03-28T03:12:05.997Z,4
2017-03-28T03:13:05.932Z,4
2017-03-28T03:14:05.866Z,4
2017-03-28T03:15:05.509Z,4
2017-03-28T03:16:05.744Z,4
2017-03-28T03:17:05.678Z,4
2017-03-28T03:18:05.628Z,4
2017-03-28T03:19:05.561Z,4
2017-03-28T03:20:05.200Z,4
2017-03-28T03:21:05.428Z,4
2017-03-28T03:22:05.381Z,4
2017-03-28T03:23:05.311Z,4
2017-03-28T03:24:05.251Z,4
2017-03-28T03:25:04.886Z,4
2017-03-28T03:26:04.819Z,4
2017-03-28T03:27:05.062Z,4
2017-03-28T03:28:05.002Z,4
2017-03-28T03:29:04.952Z,4
2017-03-28T03:30:04.881Z,4
2017-03-28T03:31:04.817Z,4
2017-03-28T03:32:04.773Z,4
2017-03-28T03:33:04.688Z,4
2017-03-28T03:34:04.627Z,4
2017-03-28T03:35:04.569Z,4
2017-03-28T03:36:04.504Z,4
2017-03-28T03:37:04.445Z,4
2017-03-28T03:38:04.381Z,4
2017-03-28T03:39:04.322Z,0
2017-03-28T03:40:04.248Z,0
2017-03-28T03:41:04.195Z,0
2017-03-28T03:42:04.125Z,0
2017-03-28T03:43:04.067Z,0
2017-03-28T03:44:04.003Z,0
2017-03-28T03:45:03.942Z,0
2017-03-28T03:46:03.898Z,0
2017-03-28T03:47:03.815Z,0
2017-03-28T03:48:03.759Z,0
2017-03-28T03:49:03.692Z,0
2017-03-28T03:50:03.627Z,0
2017-03-28T03:51:03.563Z,0
2017-03-28T03:52:03.501Z,0
2017-03-28T03:53:03.448Z,0
2017-03-28T03:54:03.381Z,0
2017-03-28T03:55:03.322Z,0
2017-03-28T03:56:03.253Z,0
2017-03-28T03:57:03.193Z,0
2017-03-28T03:58:03.134Z,0
2017-03-28T03:59:03.068Z,0
2017-03-28T04:00:03.088Z,0
2017-03-28T04:01:02.943Z,0
2017-03-28T04:02:02.878Z,0
2017-03-28T04:03:02.823Z,0
2017-03-28T04:04:02.770Z,0
2017-03-28T04:05:02.693Z,0
2017-03-28T04:06:02.629Z,0
2017-03-28T04:07:02.277Z,0
2017-03-28T04:08:02.509Z,0
2017-03-28T04:09:02.462Z,0
2017-03-28T04:10:02.416Z,0
2017-03-28T04:11:02.322Z,0
2017-03-28T04:12:02.261Z,0
2017-03-28T04:13:02.198Z,0
2017-03-28T04:14:02.134Z,0
2017-03-28T04:15:02.074Z,0
2017-03-28T04:16:02.021Z,0
2017-03-28T04:17:01.947Z,0
2017-03-28T04:18:01.885Z,0
2017-03-28T04:19:01.818Z,0
2017-03-28T04:20:01.774Z,0
2017-03-28T04:21:01.121Z,0
2017-03-28T04:22:01.035Z,0
2017-03-28T04:23:01.269Z,0
2017-03-28T04:24:01.520Z,0
2017-03-28T04:25:01.462Z,0
2017-03-28T04:26:01.387Z,0
2017-03-28T04:27:01.322Z,0
2017-03-28T04:28:01.262Z,0
2017-03-28T04:29:01.204Z,0
2017-03-28T04:30:01.136Z,0
2017-03-28T04:31:01.077Z,0
2017-03-28T04:32:01.014Z,0
2017-03-28T04:33:00.952Z,0
2017-03-28T04:34:00.888Z,0
2017-03-28T04:35:00.825Z,0
2017-03-28T04:36:00.764Z,0
2017-03-28T04:37:00.700Z,0
2017-03-28T04:38:00.640Z,0
2017-03-28T04:39:00.578Z,0
2017-03-28T04:40:00.513Z,0
2017-03-28T04:41:00.452Z,0
2017-03-28T04:42:00.393Z,0
2017-03-28T04:43:00.342Z,0
2017-03-28T04:44:00.268Z,0
2017-03-28T04:45:00.207Z,0
2017-03-28T04:46:00.135Z,0
2017-03-28T04:47:00.078Z,0
2017-03-28T04:48:00.022Z,0
2017-03-28T04:48:59.805Z,0
2017-03-28T04:49:59.810Z,0
2017-03-28T04:51:00.031Z,0
2017-03-28T04:51:59.542Z,0
2017-03-28T04:52:59.763Z,0
2017-03-28T04:53:59.338Z,0
2017-03-28T04:54:59.285Z,0
2017-03-28T04:55:59.224Z,0
2017-03-28T04:56:59.170Z,0
2017-03-28T04:57:59.403Z,0
2017-03-28T04:58:59.344Z,0
2017-03-28T04:59:59.267Z,0
2017-03-28T05:00:59.221Z,0
2017-03-28T05:01:59.154Z,4
2017-03-28T05:02:59.090Z,4
2017-03-28T05:03:59.019Z,4
2017-03-28T05:04:58.980Z,4
2017-03-28T05:05:58.889Z,4
2017-03-28T05:06:58.529Z,4
2017-03-28T05:07:58.780Z,4
2017-03-28T05:08:58.703Z,4
2017-03-28T05:09:58.642Z,0
2017-03-28T05:10:58.578Z,0
2017-03-28T05:11:58.518Z,4
2017-03-28T05:12:58.473Z,4
2017-03-28T05:13:58.396Z,4
2017-03-28T05:14:58.331Z,4
2017-03-28T05:15:58.267Z,4
2017-03-28T05:16:58.217Z,4
2017-03-28T05:17:58.144Z,4
2017-03-28T05:18:58.097Z,8
2017-03-28T05:19:58.032Z,8
2017-03-28T05:20:57.965Z,4
2017-03-28T05:21:57.603Z,4
2017-03-28T05:22:57.830Z,4
2017-03-28T05:23:57.766Z,8
2017-03-28T05:24:57.712Z,8
2017-03-28T05:25:57.639Z,8
2017-03-28T05:26:57.578Z,8
2017-03-28T05:27:57.553Z,8
2017-03-28T05:28:57.467Z,8
2017-03-28T05:29:57.395Z,8
2017-03-28T05:30:57.333Z,8
2017-03-28T05:31:57.277Z,12
2017-03-28T05:32:57.218Z,12
2017-03-28T05:33:57.165Z,12
2017-03-28T05:34:57.084Z,8
2017-03-28T05:35:57.014Z,8
2017-03-28T05:36:56.968Z,12
2017-03-28T05:37:56.901Z,12
2017-03-28T05:38:56.542Z,12
2017-03-28T05:39:56.773Z,12
2017-03-28T05:40:56.710Z,12
2017-03-28T05:41:56.646Z,12
2017-03-28T05:42:56.587Z,12
2017-03-28T05:43:56.520Z,16
2017-03-28T05:44:56.460Z,16
2017-03-28T05:45:56.400Z,16
2017-03-28T05:46:56.342Z,16
2017-03-28T05:47:56.282Z,20
2017-03-28T05:48:56.218Z,16
2017-03-28T05:49:56.155Z,20
2017-03-28T05:50:56.088Z,24
2017-03-28T05:51:56.035Z,20
2017-03-28T05:52:55.651Z,24
2017-03-28T05:53:55.597Z,24
2017-03-28T05:54:55.550Z,24
2017-03-28T05:55:55.775Z,24
2017-03-28T05:56:55.722Z,28
2017-03-28T05:57:55.358Z,28
2017-03-28T05:58:55.585Z,28
2017-03-28T05:59:55.520Z,32
2017-03-28T06:00:55.158Z,32
2017-03-28T06:01:55.405Z,36
2017-03-28T06:02:55.048Z,32
2017-03-28T06:03:55.284Z,32
2017-03-28T06:04:55.209Z,36
2017-03-28T06:05:55.148Z,36
2017-03-28T06:06:55.096Z,36
2017-03-28T06:07:55.031Z,40
2017-03-28T06:08:54.968Z,44
2017-03-28T06:09:54.893Z,48
2017-03-28T06:10:54.839Z,44
2017-03-28T06:11:54.769Z,48
2017-03-28T06:12:54.717Z,52
2017-03-28T06:13:54.652Z,52
2017-03-28T06:14:54.586Z,48
2017-03-28T06:15:54.520Z,48
2017-03-28T06:16:54.456Z,48
2017-03-28T06:17:54.417Z,52
2017-03-28T06:18:54.345Z,52
2017-03-28T06:19:53.967Z,48
2017-03-28T06:20:54.220Z,52
2017-03-28T06:21:53.847Z,56
2017-03-28T06:22:54.089Z,52
2017-03-28T06:23:53.736Z,56
2017-03-28T06:24:53.972Z,56
2017-03-28T06:25:53.898Z,60
2017-03-28T06:26:53.836Z,64
2017-03-28T06:27:53.772Z,60
2017-03-28T06:28:53.714Z,52
2017-03-28T06:29:53.652Z,40
2017-03-28T06:30:53.592Z,48
2017-03-28T06:31:53.524Z,60
2017-03-28T06:32:53.463Z,64
2017-03-28T06:33:53.405Z,64
2017-03-28T06:34:53.332Z,64
2017-03-28T06:35:53.307Z,64
2017-03-28T06:36:53.210Z,68
2017-03-28T06:37:53.152Z,68
2017-03-28T06:38:53.096Z,72
2017-03-28T06:39:53.025Z,68
2017-03-28T06:40:52.965Z,68
2017-03-28T06:41:52.608Z,68
2017-03-28T06:42:52.840Z,68
2017-03-28T06:43:52.779Z,64
2017-03-28T06:44:52.709Z,64
2017-03-28T06:45:52.654Z,60
2017-03-28T06:46:52.595Z,64
2017-03-28T06:47:52.525Z,64
2017-03-28T06:48:52.478Z,64
2017-03-28T06:49:52.102Z,60
2017-03-28T06:50:52.336Z,64
2017-03-28T06:51:51.984Z,64
2017-03-28T06:52:52.213Z,60
2017-03-28T06:53:52.148Z,56
2017-03-28T06:54:52.089Z,60
2017-03-28T06:55:52.026Z,52
2017-03-28T06:56:51.969Z,60
2017-03-28T06:57:51.900Z,56
2017-03-28T06:58:51.841Z,56
2017-03-28T06:59:51.777Z,60
2017-03-28T07:00:52.062Z,60
2017-03-28T07:01:51.655Z,60
2017-03-28T07:02:51.632Z,52
2017-03-28T07:03:51.249Z,48
2017-03-28T07:04:51.468Z,52
2017-03-28T07:05:51.403Z,52
2017-03-28T07:06:51.347Z,44
2017-03-28T07:07:51.318Z,44
2017-03-28T07:08:51.293Z,56
2017-03-28T07:09:50.937Z,52
2017-03-28T07:10:51.113Z,60
2017-03-28T07:11:51.028Z,56
2017-03-28T07:12:50.960Z,48
2017-03-28T07:13:50.903Z,56
2017-03-28T07:14:50.837Z,56
2017-03-28T07:15:50.770Z,52
2017-03-28T07:16:50.713Z,48
2017-03-28T07:17:50.666Z,44
2017-03-28T07:18:50.592Z,48
2017-03-28T07:19:50.521Z,48
2017-03-28T07:20:50.463Z,44
2017-03-28T07:21:50.402Z,44
2017-03-28T07:22:50.349Z,48
2017-03-28T07:23:50.282Z,44
2017-03-28T07:24:50.213Z,44
2017-03-28T07:25:50.261Z,40
2017-03-28T07:26:50.085Z,40
2017-03-28T07:27:50.029Z,44
2017-03-28T07:28:49.969Z,44
2017-03-28T07:29:49.904Z,48
2017-03-28T07:30:49.785Z,48
2017-03-28T07:31:49.818Z,48
2017-03-28T07:32:49.712Z,48
2017-03-28T07:33:49.651Z,48
2017-03-28T07:34:49.293Z,56
2017-03-28T07:35:49.522Z,52
2017-03-28T07:36:49.457Z,56
2017-03-28T07:37:49.412Z,52
2017-03-28T07:38:49.344Z,48
2017-03-28T07:39:49.292Z,52
2017-03-28T07:40:49.237Z,48
2017-03-28T07:41:49.157Z,48
2017-03-28T07:42:49.095Z,52
2017-03-28T07:43:49.033Z,52
2017-03-28T07:44:48.357Z,52
2017-03-28T07:45:48.898Z,48
2017-03-28T07:46:48.846Z,52
2017-03-28T07:47:48.472Z,48
2017-03-28T07:48:48.413Z,40
2017-03-28T07:49:48.654Z,44
2017-03-28T07:50:48.284Z,52
2017-03-28T07:51:48.227Z,52
2017-03-28T07:52:48.485Z,56
2017-03-28T07:53:48.105Z,56
2017-03-28T07:54:48.342Z,52
2017-03-28T07:55:48.278Z,56
2017-03-28T07:56:47.915Z,56
2017-03-28T07:57:48.162Z,60
2017-03-28T07:58:48.091Z,56
2017-03-28T07:59:48.040Z,52
2017-03-28T08:00:49.115Z,60
2017-03-28T08:01:48.136Z,60
2017-03-28T08:02:47.959Z,56
2017-03-28T08:03:47.931Z,56
2017-03-28T08:04:47.720Z,52
2017-03-28T08:05:47.361Z,48
2017-03-28T08:06:47.295Z,48
2017-03-28T08:07:47.533Z,48
2017-03-28T08:08:47.478Z,52
2017-03-28T08:09:47.419Z,48
2017-03-28T08:10:47.379Z,52
2017-03-28T08:11:47.289Z,56
2017-03-28T08:12:47.231Z,52
2017-03-28T08:13:47.196Z,48
2017-03-28T08:14:47.101Z,48
2017-03-28T08:15:47.036Z,44
2017-03-28T08:16:46.979Z,48
2017-03-28T08:17:46.932Z,44
2017-03-28T08:18:46.855Z,44
2017-03-28T08:19:46.788Z,44
2017-03-28T08:20:46.420Z,40
2017-03-28T08:21:46.717Z,40
2017-03-28T08:22:46.592Z,40
2017-03-28T08:23:46.537Z,40
2017-03-28T08:24:46.168Z,40
2017-03-28T08:25:46.108Z,36
2017-03-28T08:26:46.345Z,36
2017-03-28T08:27:46.284Z,40
2017-03-28T08:28:46.230Z,36
2017-03-28T08:29:45.867Z,32
2017-03-28T08:30:46.260Z,36
2017-03-28T08:31:46.032Z,36
2017-03-28T08:32:45.670Z,32
2017-03-28T08:33:45.919Z,32
2017-03-28T08:34:45.557Z,32
2017-03-28T08:35:46.042Z,32
2017-03-28T08:36:45.117Z,28
2017-03-28T08:37:45.658Z,32
2017-03-28T08:38:45.596Z,28
2017-03-28T08:39:45.534Z,28
2017-03-28T08:40:45.469Z,28
2017-03-28T08:41:45.116Z,28
2017-03-28T08:42:45.352Z,28
2017-03-28T08:43:45.285Z,28
2017-03-28T08:44:45.219Z,28
2017-03-28T08:45:44.855Z,28
2017-03-28T08:46:44.790Z,28
2017-03-28T08:47:44.491Z,28
2017-03-28T08:48:44.670Z,28
2017-03-28T08:49:44.903Z,28
2017-03-28T08:50:44.852Z,24
2017-03-28T08:51:44.782Z,24
2017-03-28T08:52:44.720Z,24
2017-03-28T08:53:45.011Z,24
2017-03-28T08:54:44.596Z,24
2017-03-28T08:55:44.530Z,24
2017-03-28T08:56:44.469Z,24
2017-03-28T08:57:44.421Z,24
2017-03-28T08:58:44.349Z,24
2017-03-28T08:59:44.280Z,24
2017-03-28T09:00:45.293Z,24
2017-03-28T09:01:44.154Z,24
2017-03-28T09:02:44.099Z,24
2017-03-28T09:03:44.039Z,24
2017-03-28T09:04:43.963Z,20
2017-03-28T09:05:43.999Z,24
2017-03-28T09:06:43.841Z,24
2017-03-28T09:07:43.779Z,24
2017-03-28T09:08:43.714Z,24
2017-03-28T09:09:43.661Z,24
2017-03-28T09:10:43.593Z,24
2017-03-28T09:11:43.220Z,24
2017-03-28T09:12:43.460Z,24
2017-03-28T09:13:43.403Z,24
2017-03-28T09:14:43.340Z,24
2017-03-28T09:15:43.282Z,24
2017-03-28T09:16:43.215Z,24
2017-03-28T09:17:43.193Z,24
2017-03-28T09:18:43.119Z,24
2017-03-28T09:19:43.025Z,24
2017-03-28T09:20:42.959Z,24
2017-03-28T09:21:42.894Z,24
2017-03-28T09:22:42.832Z,20
2017-03-28T09:23:42.775Z,24
2017-03-28T09:24:42.738Z,20
2017-03-28T09:25:42.649Z,20
2017-03-28T09:26:42.584Z,20
2017-03-28T09:27:42.530Z,20
2017-03-28T09:28:42.455Z,20
2017-03-28T09:29:42.400Z,20
2017-03-28T09:30:42.033Z,20
2017-03-28T09:31:42.262Z,24
2017-03-28T09:32:42.219Z,20
2017-03-28T09:33:42.156Z,24
2017-03-28T09:34:42.083Z,20
2017-03-28T09:35:41.715Z,24
2017-03-28T09:36:42.302Z,24
2017-03-28T09:37:41.589Z,24
2017-03-28T09:38:41.832Z,20
2017-03-28T09:39:41.760Z,24
2017-03-28T09:40:41.413Z,24
2017-03-28T09:41:41.053Z,24
2017-03-28T09:42:41.575Z,24
2017-03-28T09:43:41.209Z,24
2017-03-28T09:44:41.159Z,24
2017-03-28T09:45:40.783Z,24
2017-03-28T09:46:41.329Z,24
2017-03-28T09:47:41.281Z,20
2017-03-28T09:48:41.201Z,20
2017-03-28T09:49:41.138Z,20
2017-03-28T09:50:41.076Z,20
2017-03-28T09:51:40.707Z,20
2017-03-28T09:52:40.655Z,20
2017-03-28T09:53:40.892Z,20
2017-03-28T09:54:40.827Z,20
2017-03-28T09:55:40.760Z,16
2017-03-28T09:56:40.695Z,20
2017-03-28T09:57:40.645Z,16
2017-03-28T09:58:40.579Z,20
2017-03-28T09:59:40.510Z,20
2017-03-28T10:00:40.444Z,20
2017-03-28T10:01:40.388Z,20
2017-03-28T10:02:40.322Z,20
2017-03-28T10:03:40.261Z,20
2017-03-28T10:04:40.206Z,20
2017-03-28T10:05:40.136Z,20
2017-03-28T10:06:39.761Z,20
2017-03-28T10:07:40.035Z,20
2017-03-28T10:08:39.944Z,20
2017-03-28T10:09:39.885Z,20
2017-03-28T10:10:39.541Z,16
2017-03-28T10:11:39.757Z,20
2017-03-28T10:12:39.690Z,20
2017-03-28T10:13:39.654Z,20
2017-03-28T10:14:39.276Z,20
2017-03-28T10:15:39.502Z,16
2017-03-28T10:16:39.161Z,20
2017-03-28T10:17:39.096Z,20
2017-03-28T10:18:39.325Z,16
2017-03-28T10:19:39.257Z,20
2017-03-28T10:20:39.188Z,20
2017-03-28T10:21:39.128Z,16
2017-03-28T10:22:39.066Z,16
2017-03-28T10:23:39.002Z,20
2017-03-28T10:24:38.941Z,16
2017-03-28T10:25:38.880Z,16
2017-03-28T10:26:38.815Z,20
2017-03-28T10:27:38.759Z,16
2017-03-28T10:28:38.685Z,20
2017-03-28T10:29:38.627Z,20
2017-03-28T10:30:38.562Z,20
2017-03-28T10:31:38.505Z,20
2017-03-28T10:32:38.442Z,20
2017-03-28T10:33:38.381Z,20
2017-03-28T10:34:38.308Z,20
2017-03-28T10:35:38.249Z,20
2017-03-28T10:36:38.186Z,16
2017-03-28T10:37:38.122Z,20
2017-03-28T10:38:38.065Z,16
2017-03-28T10:39:52.620Z,20
2017-03-28T10:40:37.947Z,20
2017-03-28T10:41:37.599Z,20
2017-03-28T10:42:37.211Z,20
2017-03-28T10:43:37.748Z,20
2017-03-28T10:44:37.887Z,20
2017-03-28T10:45:37.501Z,20
2017-03-28T10:46:37.564Z,20
2017-03-28T10:47:37.500Z,20
2017-03-28T10:48:37.137Z,20
2017-03-28T10:49:37.633Z,20
2017-03-28T10:50:37.519Z,20
2017-03-28T10:51:36.949Z,20
2017-03-28T10:52:37.191Z,20
2017-03-28T10:53:37.128Z,20
2017-03-28T10:54:37.061Z,20
2017-03-28T10:55:37.104Z,20
2017-03-28T10:56:36.958Z,20
2017-03-28T10:57:36.871Z,20
2017-03-28T10:58:36.820Z,20
2017-03-28T10:59:36.758Z,20
2017-03-28T11:00:36.884Z,20
2017-03-28T11:01:36.627Z,20
2017-03-28T11:02:36.561Z,24
2017-03-28T11:03:36.501Z,24
2017-03-28T11:04:36.453Z,20
2017-03-28T11:05:36.381Z,20
2017-03-28T11:06:36.316Z,20
2017-03-28T11:07:36.257Z,24
2017-03-28T11:08:36.192Z,20
2017-03-28T11:09:36.128Z,20
2017-03-28T11:10:35.763Z,20
2017-03-28T11:11:36.004Z,20
2017-03-28T11:12:35.964Z,20
2017-03-28T11:13:35.885Z,24
2017-03-28T11:14:35.816Z,20
2017-03-28T11:15:35.759Z,20
2017-03-28T11:16:35.708Z,20
2017-03-28T11:17:35.624Z,20
2017-03-28T11:18:35.562Z,20
2017-03-28T11:19:35.504Z,20
2017-03-28T11:20:35.439Z,20
2017-03-28T11:21:35.373Z,20
2017-03-28T11:22:35.075Z,20
2017-03-28T11:23:35.277Z,20
2017-03-28T11:24:35.246Z,20
2017-03-28T11:25:34.832Z,20
2017-03-28T11:26:35.083Z,20
2017-03-28T11:27:35.025Z,20
2017-03-28T11:28:34.977Z,20
2017-03-28T11:29:34.663Z,20
2017-03-28T11:30:34.511Z,20
2017-03-28T11:31:34.746Z,20
2017-03-28T11:32:34.386Z,24
2017-03-28T11:33:34.631Z,24
2017-03-28T11:34:34.568Z,24
2017-03-28T11:35:34.199Z,24
2017-03-28T11:36:34.439Z,24
2017-03-28T11:37:34.069Z,24
2017-03-28T11:38:34.313Z,24
2017-03-28T11:39:34.250Z,24
2017-03-28T11:40:34.189Z,24
2017-03-28T11:41:34.131Z,24
2017-03-28T11:42:34.067Z,24
2017-03-28T11:43:34.003Z,24
2017-03-28T11:44:33.936Z,24
2017-03-28T11:45:33.888Z,24
2017-03-28T11:46:33.814Z,24
2017-03-28T11:47:33.756Z,24
2017-03-28T11:48:33.691Z,24
2017-03-28T11:49:33.626Z,24
2017-03-28T11:50:33.359Z,24
2017-03-28T11:51:33.508Z,24
2017-03-28T11:52:33.439Z,24
2017-03-28T11:53:33.382Z,24
2017-03-28T11:54:33.322Z,24
2017-03-28T11:55:33.411Z,24
2017-03-28T11:56:33.206Z,24
2017-03-28T11:57:33.133Z,24
2017-03-28T11:58:32.771Z,20
2017-03-28T11:59:33.046Z,24
2017-03-28T12:00:32.958Z,24
2017-03-28T12:01:32.601Z,20
2017-03-28T12:02:32.825Z,24
2017-03-28T12:03:32.756Z,24
2017-03-28T12:04:32.702Z,24
2017-03-28T12:05:32.634Z,24
2017-03-28T12:06:32.261Z,24
2017-03-28T12:07:32.503Z,24
2017-03-28T12:08:32.446Z,24
2017-03-28T12:09:32.381Z,24
2017-03-28T12:10:32.313Z,24
2017-03-28T12:11:31.951Z,24
2017-03-28T12:12:32.191Z,24
2017-03-28T12:13:32.130Z,24
2017-03-28T12:14:32.073Z,24
2017-03-28T12:15:32.006Z,24
2017-03-28T12:16:31.944Z,24
2017-03-28T12:17:31.888Z,24
2017-03-28T12:18:31.827Z,24
2017-03-28T12:19:31.773Z,24
2017-03-28T12:20:31.712Z,24
2017-03-28T12:21:32.042Z,24
2017-03-28T12:22:31.797Z,20
2017-03-28T12:23:31.747Z,24
2017-03-28T12:24:31.463Z,24
2017-03-28T12:25:31.386Z,24
2017-03-28T12:26:31.324Z,28
2017-03-28T12:27:31.275Z,28
2017-03-28T12:28:31.208Z,24
2017-03-28T12:29:31.137Z,24
2017-03-28T12:30:31.076Z,24
2017-03-28T12:31:30.918Z,24
2017-03-28T12:32:31.316Z,116
2017-03-28T12:33:31.131Z,140
2017-03-28T12:34:30.234Z,152
2017-03-28T12:35:30.768Z,152
2017-03-28T12:36:30.701Z,148
2017-03-28T12:37:30.645Z,148
2017-03-28T12:38:30.585Z,148
2017-03-28T12:39:30.518Z,148
2017-03-28T12:40:30.162Z,148
2017-03-28T12:41:30.405Z,144
2017-03-28T12:42:30.031Z,144
2017-03-28T12:43:29.970Z,148
2017-03-28T12:44:30.215Z,144
2017-03-28T12:45:30.505Z,144
2017-03-28T12:46:30.089Z,144
2017-03-28T12:47:30.034Z,144
2017-03-28T12:48:29.961Z,144
2017-03-28T12:49:29.293Z,144
2017-03-28T12:50:29.851Z,144
2017-03-28T12:51:29.778Z,144
2017-03-28T12:52:29.721Z,144
2017-03-28T12:53:29.656Z,144
2017-03-28T12:54:29.599Z,144
2017-03-28T12:55:29.534Z,144
2017-03-28T12:56:29.485Z,144
2017-03-28T12:57:29.416Z,144
2017-03-28T12:58:29.054Z,140
2017-03-28T12:59:29.286Z,144
2017-03-28T13:00:29.232Z,144
2017-03-28T13:01:29.174Z,144
2017-03-28T13:02:29.102Z,144
2017-03-28T13:03:29.094Z,144
2017-03-28T13:04:28.374Z,144
2017-03-28T13:05:28.914Z,144
2017-03-28T13:06:28.551Z,144
2017-03-28T13:07:28.496Z,144
2017-03-28T13:08:28.734Z,144
2017-03-28T13:09:28.712Z,144
2017-03-28T13:10:28.608Z,144
2017-03-28T13:11:28.555Z,144
2017-03-28T13:12:28.500Z,144
2017-03-28T13:13:28.423Z,144
2017-03-28T13:14:28.365Z,144
2017-03-28T13:15:28.005Z,144
2017-03-28T13:16:28.242Z,144
2017-03-28T13:17:27.672Z,140
2017-03-28T13:18:28.116Z,144
2017-03-28T13:19:28.094Z,140
2017-03-28T13:20:28.003Z,28
2017-03-28T13:21:28.239Z,28
2017-03-28T13:22:27.877Z,28
2017-03-28T13:23:27.845Z,28
2017-03-28T13:24:27.762Z,28
2017-03-28T13:25:27.687Z,24
2017-03-28T13:26:27.654Z,24
2017-03-28T13:27:27.262Z,28
2017-03-28T13:28:27.513Z,24
2017-03-28T13:29:27.455Z,28
2017-03-28T13:30:27.383Z,28
2017-03-28T13:31:27.328Z,28
2017-03-28T13:32:26.966Z,28
2017-03-28T13:33:27.198Z,28
2017-03-28T13:34:26.833Z,28
2017-03-28T13:35:27.073Z,28
2017-03-28T13:36:27.018Z,28
2017-03-28T13:37:26.956Z,28
2017-03-28T13:38:26.889Z,28
2017-03-28T13:39:26.834Z,28
2017-03-28T13:40:26.772Z,28
2017-03-28T13:41:26.517Z,28
2017-03-28T13:42:26.648Z,28
2017-03-28T13:43:26.585Z,28
2017-03-28T13:44:26.525Z,28
2017-03-28T13:45:26.170Z,24
2017-03-28T13:46:26.427Z,28
2017-03-28T13:47:26.343Z,28
2017-03-28T13:48:26.281Z,28
2017-03-28T13:49:26.214Z,28
2017-03-28T13:50:25.859Z,24
2017-03-28T13:51:26.099Z,28
2017-03-28T13:52:26.034Z,24
2017-03-28T13:53:25.666Z,24
2017-03-28T13:54:25.904Z,24
2017-03-28T13:55:25.952Z,24
2017-03-28T13:56:25.802Z,24
2017-03-28T13:57:25.421Z,24
2017-03-28T13:58:25.357Z,24
2017-03-28T13:59:25.604Z,24
2017-03-28T14:00:25.250Z,24
2017-03-28T14:01:25.176Z,24
2017-03-28T14:02:25.419Z,24
2017-03-28T14:03:25.359Z,24
2017-03-28T14:04:24.992Z,24
2017-03-28T14:05:25.338Z,24
2017-03-28T14:06:25.170Z,24
2017-03-28T14:07:25.114Z,24
2017-03-28T14:08:25.045Z,24
2017-03-28T14:09:24.709Z,24
2017-03-28T14:10:25.172Z,24
2017-03-28T14:11:24.633Z,24
2017-03-28T14:12:24.802Z,24
2017-03-28T14:13:26.892Z,24
2017-03-28T14:14:24.615Z,24
2017-03-28T14:15:24.765Z,24
2017-03-28T14:16:25.895Z,24
2017-03-28T14:17:25.208Z,24
2017-03-28T14:18:25.005Z,24
2017-03-28T14:19:25.298Z,24
2017-03-28T14:20:24.667Z,24
2017-03-28T14:21:24.900Z,24
2017-03-28T14:22:24.183Z,24
2017-03-28T14:23:24.104Z,24
2017-03-28T14:24:24.467Z,24
2017-03-28T14:25:24.907Z,24